sensor_id;sensor_type;location;lat;lon;timestamp;P1;durP1;ratioP1;P2;durP2;ratioP2
12892;SDS011;6514;48.606;9.222;2022-08-30T00:01:03;10.53;;;8.67;;
12892;SDS011;6514;48.606;9.222;2022-08-30T00:03:31;9.03;;;7.63;;
12892;SDS011;6514;48.606;9.222;2022-08-30T00:06:00;8.87;;;7.93;;
12892;SDS011;6514;48.606;9.222;2022-08-30T00:08:27;9.37;;;8.37;;
12892;SDS011;6514;48.606;9.222;2022-08-30T00:10:54;11.00;;;7.47;;
12892;SDS011;6514;48.606;9.222;2022-08-30T00:13:22;9.80;;;8.63;;
12892;SDS011;6514;48.606;9.222;2022-08-30T00:15:49;9.33;;;8.20;;
12892;SDS011;6514;48.606;9.222;2022-08-30T00:18:18;9.13;;;8.33;;
12892;SDS011;6514;48.606;9.222;2022-08-30T00:20:47;9.70;;;8.70;;
12892;SDS011;6514;48.606;9.222;2022-08-30T00:23:15;12.10;;;8.90;;
12892;SDS011;6514;48.606;9.222;2022-08-30T00:25:43;10.20;;;9.23;;
12892;SDS011;6514;48.606;9.222;2022-08-30T00:28:10;10.47;;;9.33;;
12892;SDS011;6514;48.606;9.222;2022-08-30T00:30:38;9.63;;;8.73;;
12892;SDS011;6514;48.606;9.222;2022-08-30T00:33:05;9.97;;;9.07;;
12892;SDS011;6514;48.606;9.222;2022-08-30T00:35:33;9.43;;;8.53;;
12892;SDS011;6514;48.606;9.222;2022-08-30T00:38:02;10.30;;;9.27;;
12892;SDS011;6514;48.606;9.222;2022-08-30T00:40:29;11.33;;;9.60;;
12892;SDS011;6514;48.606;9.222;2022-08-30T00:42:57;10.10;;;9.20;;
12892;SDS011;6514;48.606;9.222;2022-08-30T00:45:26;10.57;;;8.93;;
12892;SDS011;6514;48.606;9.222;2022-08-30T00:47:54;12.10;;;9.53;;
12892;SDS011;6514;48.606;9.222;2022-08-30T00:50:27;10.67;;;8.90;;
12892;SDS011;6514;48.606;9.222;2022-08-30T00:52:59;9.50;;;8.50;;
12892;SDS011;6514;48.606;9.222;2022-08-30T00:55:29;10.23;;;9.10;;
12892;SDS011;6514;48.606;9.222;2022-08-30T00:57:57;10.10;;;9.10;;
12892;SDS011;6514;48.606;9.222;2022-08-30T01:00:27;10.60;;;9.40;;
12892;SDS011;6514;48.606;9.222;2022-08-30T01:02:54;10.03;;;8.47;;
12892;SDS011;6514;48.606;9.222;2022-08-30T01:05:21;9.57;;;8.27;;
12892;SDS011;6514;48.606;9.222;2022-08-30T01:07:49;10.00;;;9.00;;
12892;SDS011;6514;48.606;9.222;2022-08-30T01:10:17;9.33;;;8.43;;
12892;SDS011;6514;48.606;9.222;2022-08-30T01:12:44;9.63;;;8.30;;
12892;SDS011;6514;48.606;9.222;2022-08-30T01:15:13;10.00;;;8.90;;
12892;SDS011;6514;48.606;9.222;2022-08-30T01:17:40;9.03;;;8.23;;
12892;SDS011;6514;48.606;9.222;2022-08-30T01:20:10;9.83;;;9.00;;
12892;SDS011;6514;48.606;9.222;2022-08-30T01:22:41;9.10;;;8.20;;
12892;SDS011;6514;48.606;9.222;2022-08-30T01:25:15;10.33;;;8.63;;
12892;SDS011;6514;48.606;9.222;2022-08-30T01:27:45;9.53;;;8.57;;
12892;SDS011;6514;48.606;9.222;2022-08-30T01:30:15;9.80;;;8.83;;
12892;SDS011;6514;48.606;9.222;2022-08-30T01:32:44;10.70;;;9.40;;
12892;SDS011;6514;48.606;9.222;2022-08-30T01:35:13;11.87;;;9.27;;
12892;SDS011;6514;48.606;9.222;2022-08-30T01:37:42;9.67;;;8.77;;
12892;SDS011;6514;48.606;9.222;2022-08-30T01:40:10;10.03;;;8.67;;
12892;SDS011;6514;48.606;9.222;2022-08-30T01:42:40;9.83;;;8.97;;
12892;SDS011;6514;48.606;9.222;2022-08-30T01:45:07;10.73;;;9.63;;
12892;SDS011;6514;48.606;9.222;2022-08-30T01:47:35;11.23;;;10.03;;
12892;SDS011;6514;48.606;9.222;2022-08-30T01:50:04;9.63;;;8.73;;
12892;SDS011;6514;48.606;9.222;2022-08-30T01:52:31;10.47;;;9.47;;
12892;SDS011;6514;48.606;9.222;2022-08-30T01:54:58;9.77;;;8.87;;
12892;SDS011;6514;48.606;9.222;2022-08-30T01:57:26;9.83;;;8.93;;
12892;SDS011;6514;48.606;9.222;2022-08-30T01:59:54;10.67;;;8.80;;
12892;SDS011;6514;48.606;9.222;2022-08-30T02:02:22;10.33;;;9.43;;
12892;SDS011;6514;48.606;9.222;2022-08-30T02:04:52;10.00;;;9.03;;
12892;SDS011;6514;48.606;9.222;2022-08-30T02:07:19;10.07;;;9.10;;
12892;SDS011;6514;48.606;9.222;2022-08-30T02:09:46;10.63;;;8.63;;
12892;SDS011;6514;48.606;9.222;2022-08-30T02:12:13;9.90;;;8.87;;
12892;SDS011;6514;48.606;9.222;2022-08-30T02:14:41;10.20;;;9.20;;
12892;SDS011;6514;48.606;9.222;2022-08-30T02:17:09;10.03;;;9.00;;
12892;SDS011;6514;48.606;9.222;2022-08-30T02:19:38;11.13;;;10.00;;
12892;SDS011;6514;48.606;9.222;2022-08-30T02:22:07;10.53;;;9.47;;
12892;SDS011;6514;48.606;9.222;2022-08-30T02:24:34;12.30;;;10.40;;
12892;SDS011;6514;48.606;9.222;2022-08-30T02:27:02;10.43;;;9.23;;
12892;SDS011;6514;48.606;9.222;2022-08-30T02:29:29;10.57;;;9.63;;
12892;SDS011;6514;48.606;9.222;2022-08-30T02:31:56;10.70;;;9.70;;
12892;SDS011;6514;48.606;9.222;2022-08-30T02:34:24;10.13;;;9.23;;
12892;SDS011;6514;48.606;9.222;2022-08-30T02:36:51;10.63;;;8.77;;
12892;SDS011;6514;48.606;9.222;2022-08-30T02:39:18;10.77;;;9.67;;
12892;SDS011;6514;48.606;9.222;2022-08-30T02:41:45;10.00;;;9.00;;
12892;SDS011;6514;48.606;9.222;2022-08-30T02:44:12;8.97;;;8.17;;
12892;SDS011;6514;48.606;9.222;2022-08-30T02:46:40;10.60;;;9.50;;
12892;SDS011;6514;48.606;9.222;2022-08-30T02:49:07;10.77;;;9.77;;
12892;SDS011;6514;48.606;9.222;2022-08-30T02:51:36;11.10;;;10.10;;
12892;SDS011;6514;48.606;9.222;2022-08-30T02:54:03;10.27;;;9.47;;
12892;SDS011;6514;48.606;9.222;2022-08-30T02:56:30;11.30;;;10.30;;
12892;SDS011;6514;48.606;9.222;2022-08-30T02:58:57;11.97;;;10.83;;
12892;SDS011;6514;48.606;9.222;2022-08-30T03:01:24;11.83;;;10.63;;
12892;SDS011;6514;48.606;9.222;2022-08-30T03:03:51;9.70;;;8.90;;
12892;SDS011;6514;48.606;9.222;2022-08-30T03:06:18;12.67;;;10.77;;
12892;SDS011;6514;48.606;9.222;2022-08-30T03:08:47;11.50;;;10.37;;
12892;SDS011;6514;48.606;9.222;2022-08-30T03:11:14;11.37;;;10.30;;
12892;SDS011;6514;48.606;9.222;2022-08-30T03:13:41;11.63;;;10.43;;
12892;SDS011;6514;48.606;9.222;2022-08-30T03:16:08;10.17;;;9.33;;
12892;SDS011;6514;48.606;9.222;2022-08-30T03:18:35;10.90;;;9.90;;
12892;SDS011;6514;48.606;9.222;2022-08-30T03:21:02;13.43;;;10.63;;
12892;SDS011;6514;48.606;9.222;2022-08-30T03:23:33;11.97;;;10.43;;
12892;SDS011;6514;48.606;9.222;2022-08-30T03:26:02;10.97;;;9.87;;
12892;SDS011;6514;48.606;9.222;2022-08-30T03:28:29;11.07;;;9.93;;
12892;SDS011;6514;48.606;9.222;2022-08-30T03:30:56;10.80;;;9.80;;
12892;SDS011;6514;48.606;9.222;2022-08-30T03:33:23;11.27;;;10.00;;
12892;SDS011;6514;48.606;9.222;2022-08-30T03:35:49;12.27;;;10.97;;
12892;SDS011;6514;48.606;9.222;2022-08-30T03:38:17;12.90;;;10.70;;
12892;SDS011;6514;48.606;9.222;2022-08-30T03:40:43;11.80;;;10.70;;
12892;SDS011;6514;48.606;9.222;2022-08-30T03:43:12;11.43;;;10.30;;
12892;SDS011;6514;48.606;9.222;2022-08-30T03:45:39;11.83;;;10.63;;
12892;SDS011;6514;48.606;9.222;2022-08-30T03:48:06;11.80;;;10.70;;
12892;SDS011;6514;48.606;9.222;2022-08-30T03:50:33;11.73;;;10.63;;
12892;SDS011;6514;48.606;9.222;2022-08-30T03:53:00;13.03;;;11.27;;
12892;SDS011;6514;48.606;9.222;2022-08-30T03:55:28;12.83;;;11.63;;
12892;SDS011;6514;48.606;9.222;2022-08-30T03:57:55;13.77;;;12.47;;
12892;SDS011;6514;48.606;9.222;2022-08-30T04:00:23;13.87;;;12.43;;
12892;SDS011;6514;48.606;9.222;2022-08-30T04:02:50;13.90;;;11.30;;
12892;SDS011;6514;48.606;9.222;2022-08-30T04:05:18;12.77;;;11.50;;
12892;SDS011;6514;48.606;9.222;2022-08-30T04:07:45;12.23;;;11.07;;
12892;SDS011;6514;48.606;9.222;2022-08-30T04:10:12;12.80;;;11.70;;
12892;SDS011;6514;48.606;9.222;2022-08-30T04:12:39;14.30;;;12.40;;
12892;SDS011;6514;48.606;9.222;2022-08-30T04:15:07;14.20;;;12.67;;
12892;SDS011;6514;48.606;9.222;2022-08-30T04:17:36;14.57;;;13.03;;
12892;SDS011;6514;48.606;9.222;2022-08-30T04:20:04;15.10;;;13.53;;
12892;SDS011;6514;48.606;9.222;2022-08-30T04:22:31;14.07;;;12.63;;
12892;SDS011;6514;48.606;9.222;2022-08-30T04:24:58;14.73;;;13.13;;
12892;SDS011;6514;48.606;9.222;2022-08-30T04:27:25;13.57;;;12.17;;
12892;SDS011;6514;48.606;9.222;2022-08-30T04:29:52;14.83;;;13.17;;
12892;SDS011;6514;48.606;9.222;2022-08-30T04:32:20;15.50;;;14.00;;
12892;SDS011;6514;48.606;9.222;2022-08-30T04:34:48;16.20;;;13.47;;
12892;SDS011;6514;48.606;9.222;2022-08-30T04:37:15;14.07;;;12.70;;
12892;SDS011;6514;48.606;9.222;2022-08-30T04:39:42;13.90;;;12.07;;
12892;SDS011;6514;48.606;9.222;2022-08-30T04:42:10;13.97;;;12.57;;
12892;SDS011;6514;48.606;9.222;2022-08-30T04:44:37;14.33;;;12.87;;
12892;SDS011;6514;48.606;9.222;2022-08-30T04:47:04;17.53;;;13.13;;
12892;SDS011;6514;48.606;9.222;2022-08-30T04:49:32;14.97;;;13.57;;
12892;SDS011;6514;48.606;9.222;2022-08-30T04:52:00;14.70;;;13.20;;
12892;SDS011;6514;48.606;9.222;2022-08-30T04:54:29;15.50;;;13.83;;
12892;SDS011;6514;48.606;9.222;2022-08-30T04:56:56;16.30;;;13.87;;
12892;SDS011;6514;48.606;9.222;2022-08-30T04:59:24;15.30;;;13.33;;
12892;SDS011;6514;48.606;9.222;2022-08-30T05:01:52;14.40;;;13.00;;
12892;SDS011;6514;48.606;9.222;2022-08-30T05:04:19;15.00;;;12.67;;
12892;SDS011;6514;48.606;9.222;2022-08-30T05:06:46;14.70;;;13.20;;
12892;SDS011;6514;48.606;9.222;2022-08-30T05:09:15;15.17;;;12.83;;
12892;SDS011;6514;48.606;9.222;2022-08-30T05:11:42;22.07;;;14.50;;
12892;SDS011;6514;48.606;9.222;2022-08-30T05:14:10;24.47;;;13.90;;
12892;SDS011;6514;48.606;9.222;2022-08-30T05:16:37;23.67;;;14.37;;
12892;SDS011;6514;48.606;9.222;2022-08-30T05:19:05;19.40;;;14.47;;
12892;SDS011;6514;48.606;9.222;2022-08-30T05:21:33;17.67;;;13.97;;
12892;SDS011;6514;48.606;9.222;2022-08-30T05:24:00;14.73;;;12.60;;
12892;SDS011;6514;48.606;9.222;2022-08-30T05:26:29;13.70;;;12.30;;
12892;SDS011;6514;48.606;9.222;2022-08-30T05:28:57;13.97;;;11.70;;
12892;SDS011;6514;48.606;9.222;2022-08-30T05:31:25;13.37;;;12.10;;
12892;SDS011;6514;48.606;9.222;2022-08-30T05:33:54;14.33;;;12.80;;
12892;SDS011;6514;48.606;9.222;2022-08-30T05:36:22;13.07;;;11.70;;
12892;SDS011;6514;48.606;9.222;2022-08-30T05:38:51;13.17;;;11.87;;
12892;SDS011;6514;48.606;9.222;2022-08-30T05:41:18;12.20;;;11.00;;
12892;SDS011;6514;48.606;9.222;2022-08-30T05:43:47;12.97;;;11.40;;
12892;SDS011;6514;48.606;9.222;2022-08-30T05:46:17;12.13;;;10.93;;
12892;SDS011;6514;48.606;9.222;2022-08-30T05:48:46;12.20;;;11.00;;
12892;SDS011;6514;48.606;9.222;2022-08-30T05:51:15;12.63;;;11.23;;
12892;SDS011;6514;48.606;9.222;2022-08-30T05:53:43;11.50;;;10.27;;
12892;SDS011;6514;48.606;9.222;2022-08-30T05:56:11;12.33;;;10.33;;
12892;SDS011;6514;48.606;9.222;2022-08-30T05:58:39;11.20;;;10.10;;
12892;SDS011;6514;48.606;9.222;2022-08-30T06:01:08;11.37;;;10.27;;
12892;SDS011;6514;48.606;9.222;2022-08-30T06:03:44;12.33;;;10.77;;
12892;SDS011;6514;48.606;9.222;2022-08-30T06:06:11;10.50;;;9.50;;
12892;SDS011;6514;48.606;9.222;2022-08-30T06:08:38;11.67;;;9.83;;
12892;SDS011;6514;48.606;9.222;2022-08-30T06:11:06;10.70;;;9.50;;
12892;SDS011;6514;48.606;9.222;2022-08-30T06:13:33;11.33;;;9.90;;
12892;SDS011;6514;48.606;9.222;2022-08-30T06:16:00;10.80;;;9.73;;
12892;SDS011;6514;48.606;9.222;2022-08-30T06:18:29;10.70;;;9.60;;
12892;SDS011;6514;48.606;9.222;2022-08-30T06:20:56;10.07;;;9.17;;
12892;SDS011;6514;48.606;9.222;2022-08-30T06:23:23;11.87;;;9.43;;
12892;SDS011;6514;48.606;9.222;2022-08-30T06:25:50;10.30;;;9.30;;
12892;SDS011;6514;48.606;9.222;2022-08-30T06:28:17;10.70;;;9.70;;
12892;SDS011;6514;48.606;9.222;2022-08-30T06:30:44;9.27;;;8.47;;
12892;SDS011;6514;48.606;9.222;2022-08-30T06:33:11;10.57;;;9.53;;
12892;SDS011;6514;48.606;9.222;2022-08-30T06:35:39;10.03;;;9.03;;
12892;SDS011;6514;48.606;9.222;2022-08-30T06:38:06;10.20;;;9.27;;
12892;SDS011;6514;48.606;9.222;2022-08-30T06:40:34;11.40;;;9.23;;
12892;SDS011;6514;48.606;9.222;2022-08-30T06:43:01;8.83;;;8.03;;
12892;SDS011;6514;48.606;9.222;2022-08-30T06:45:28;8.87;;;7.90;;
12892;SDS011;6514;48.606;9.222;2022-08-30T06:47:57;8.03;;;7.23;;
12892;SDS011;6514;48.606;9.222;2022-08-30T06:50:24;7.60;;;6.80;;
12892;SDS011;6514;48.606;9.222;2022-08-30T06:52:52;8.87;;;7.73;;
12892;SDS011;6514;48.606;9.222;2022-08-30T06:55:19;8.70;;;7.80;;
12892;SDS011;6514;48.606;9.222;2022-08-30T06:57:47;7.60;;;6.90;;
12892;SDS011;6514;48.606;9.222;2022-08-30T07:00:14;8.33;;;6.87;;
12892;SDS011;6514;48.606;9.222;2022-08-30T07:02:42;6.47;;;5.80;;
12892;SDS011;6514;48.606;9.222;2022-08-30T07:05:09;7.17;;;6.57;;
12892;SDS011;6514;48.606;9.222;2022-08-30T07:07:37;7.73;;;6.93;;
12892;SDS011;6514;48.606;9.222;2022-08-30T07:10:06;7.80;;;6.67;;
12892;SDS011;6514;48.606;9.222;2022-08-30T07:12:33;7.57;;;6.57;;
12892;SDS011;6514;48.606;9.222;2022-08-30T07:15:01;7.80;;;7.00;;
12892;SDS011;6514;48.606;9.222;2022-08-30T07:17:29;10.03;;;7.40;;
12892;SDS011;6514;48.606;9.222;2022-08-30T07:20:13;8.70;;;7.30;;
12892;SDS011;6514;48.606;9.222;2022-08-30T07:22:42;8.37;;;6.50;;
12892;SDS011;6514;48.606;9.222;2022-08-30T07:25:10;9.20;;;7.23;;
12892;SDS011;6514;48.606;9.222;2022-08-30T07:27:38;8.57;;;6.87;;
12892;SDS011;6514;48.606;9.222;2022-08-30T07:30:06;7.47;;;6.87;;
12892;SDS011;6514;48.606;9.222;2022-08-30T07:32:34;8.63;;;7.60;;
12892;SDS011;6514;48.606;9.222;2022-08-30T07:35:02;7.87;;;7.10;;
12892;SDS011;6514;48.606;9.222;2022-08-30T07:37:30;8.77;;;7.90;;
12892;SDS011;6514;48.606;9.222;2022-08-30T07:39:56;9.07;;;7.83;;
12892;SDS011;6514;48.606;9.222;2022-08-30T07:42:25;8.73;;;7.83;;
12892;SDS011;6514;48.606;9.222;2022-08-30T07:44:52;7.37;;;6.67;;
12892;SDS011;6514;48.606;9.222;2022-08-30T07:47:19;8.47;;;7.50;;
12892;SDS011;6514;48.606;9.222;2022-08-30T07:49:46;8.23;;;7.53;;
12892;SDS011;6514;48.606;9.222;2022-08-30T07:52:13;9.07;;;7.57;;
12892;SDS011;6514;48.606;9.222;2022-08-30T07:54:40;7.73;;;7.03;;
12892;SDS011;6514;48.606;9.222;2022-08-30T07:57:07;8.17;;;7.47;;
12892;SDS011;6514;48.606;9.222;2022-08-30T07:59:36;8.47;;;7.43;;
12892;SDS011;6514;48.606;9.222;2022-08-30T08:02:03;8.07;;;7.20;;
12892;SDS011;6514;48.606;9.222;2022-08-30T08:04:29;9.73;;;7.70;;
12892;SDS011;6514;48.606;9.222;2022-08-30T08:06:57;10.17;;;8.30;;
12892;SDS011;6514;48.606;9.222;2022-08-30T08:09:24;8.40;;;7.70;;
12892;SDS011;6514;48.606;9.222;2022-08-30T08:11:51;8.13;;;7.43;;
12892;SDS011;6514;48.606;9.222;2022-08-30T08:14:18;9.10;;;8.20;;
12892;SDS011;6514;48.606;9.222;2022-08-30T08:16:47;8.83;;;7.93;;
12892;SDS011;6514;48.606;9.222;2022-08-30T08:19:14;7.90;;;7.10;;
12892;SDS011;6514;48.606;9.222;2022-08-30T08:21:42;7.90;;;7.10;;
12892;SDS011;6514;48.606;9.222;2022-08-30T08:24:09;8.77;;;7.60;;
12892;SDS011;6514;48.606;9.222;2022-08-30T08:26:36;9.27;;;8.07;;
12892;SDS011;6514;48.606;9.222;2022-08-30T08:29:04;7.43;;;6.83;;
12892;SDS011;6514;48.606;9.222;2022-08-30T08:31:32;11.03;;;7.33;;
12892;SDS011;6514;48.606;9.222;2022-08-30T08:34:01;7.97;;;7.10;;
12892;SDS011;6514;48.606;9.222;2022-08-30T08:36:29;7.13;;;6.30;;
12892;SDS011;6514;48.606;9.222;2022-08-30T08:38:57;7.63;;;6.60;;
12892;SDS011;6514;48.606;9.222;2022-08-30T08:41:30;7.90;;;6.07;;
12892;SDS011;6514;48.606;9.222;2022-08-30T08:44:08;7.50;;;5.80;;
12892;SDS011;6514;48.606;9.222;2022-08-30T08:46:43;6.73;;;5.90;;
12892;SDS011;6514;48.606;9.222;2022-08-30T08:49:18;7.03;;;6.37;;
12892;SDS011;6514;48.606;9.222;2022-08-30T08:51:45;6.43;;;5.83;;
12892;SDS011;6514;48.606;9.222;2022-08-30T08:54:31;8.93;;;6.93;;
12892;SDS011;6514;48.606;9.222;2022-08-30T08:57:04;7.33;;;5.93;;
12892;SDS011;6514;48.606;9.222;2022-08-30T08:59:31;7.07;;;6.40;;
12892;SDS011;6514;48.606;9.222;2022-08-30T09:01:59;5.70;;;5.20;;
12892;SDS011;6514;48.606;9.222;2022-08-30T09:04:32;5.73;;;5.13;;
12892;SDS011;6514;48.606;9.222;2022-08-30T09:07:02;6.30;;;5.70;;
12892;SDS011;6514;48.606;9.222;2022-08-30T09:09:35;6.20;;;5.60;;
12892;SDS011;6514;48.606;9.222;2022-08-30T09:12:05;6.50;;;5.90;;
12892;SDS011;6514;48.606;9.222;2022-08-30T09:14:37;5.80;;;5.20;;
12892;SDS011;6514;48.606;9.222;2022-08-30T09:17:06;6.33;;;5.23;;
12892;SDS011;6514;48.606;9.222;2022-08-30T09:19:40;5.33;;;4.83;;
12892;SDS011;6514;48.606;9.222;2022-08-30T09:22:18;5.70;;;5.13;;
12892;SDS011;6514;48.606;9.222;2022-08-30T09:24:51;6.20;;;5.17;;
12892;SDS011;6514;48.606;9.222;2022-08-30T09:27:21;5.80;;;4.90;;
12892;SDS011;6514;48.606;9.222;2022-08-30T09:29:52;5.20;;;4.80;;
12892;SDS011;6514;48.606;9.222;2022-08-30T09:32:25;6.70;;;4.70;;
12892;SDS011;6514;48.606;9.222;2022-08-30T09:35:03;6.03;;;4.07;;
12892;SDS011;6514;48.606;9.222;2022-08-30T09:37:35;6.53;;;4.00;;
12892;SDS011;6514;48.606;9.222;2022-08-30T09:40:09;5.07;;;4.57;;
12892;SDS011;6514;48.606;9.222;2022-08-30T09:42:39;5.20;;;4.03;;
12892;SDS011;6514;48.606;9.222;2022-08-30T09:45:09;4.70;;;4.20;;
12892;SDS011;6514;48.606;9.222;2022-08-30T09:47:45;5.03;;;4.10;;
12892;SDS011;6514;48.606;9.222;2022-08-30T09:50:14;4.63;;;4.17;;
12892;SDS011;6514;48.606;9.222;2022-08-30T09:52:52;4.77;;;4.33;;
12892;SDS011;6514;48.606;9.222;2022-08-30T09:55:31;5.67;;;4.67;;
12892;SDS011;6514;48.606;9.222;2022-08-30T09:58:16;4.60;;;4.20;;
12892;SDS011;6514;48.606;9.222;2022-08-30T10:00:49;6.60;;;4.20;;
12892;SDS011;6514;48.606;9.222;2022-08-30T10:03:23;4.90;;;4.10;;
12892;SDS011;6514;48.606;9.222;2022-08-30T10:05:59;4.60;;;4.20;;
12892;SDS011;6514;48.606;9.222;2022-08-30T10:08:37;4.53;;;4.13;;
12892;SDS011;6514;48.606;9.222;2022-08-30T10:11:12;5.03;;;4.50;;
12892;SDS011;6514;48.606;9.222;2022-08-30T10:13:52;5.33;;;4.73;;
12892;SDS011;6514;48.606;9.222;2022-08-30T10:16:30;5.90;;;4.10;;
12892;SDS011;6514;48.606;9.222;2022-08-30T10:19:05;5.67;;;4.03;;
12892;SDS011;6514;48.606;9.222;2022-08-30T10:21:46;5.00;;;4.50;;
12892;SDS011;6514;48.606;9.222;2022-08-30T10:24:20;4.80;;;4.27;;
12892;SDS011;6514;48.606;9.222;2022-08-30T10:26:50;8.83;;;5.40;;
12892;SDS011;6514;48.606;9.222;2022-08-30T10:29:21;4.77;;;4.37;;
12892;SDS011;6514;48.606;9.222;2022-08-30T10:31:55;6.70;;;4.07;;
12892;SDS011;6514;48.606;9.222;2022-08-30T10:34:28;5.30;;;4.37;;
12892;SDS011;6514;48.606;9.222;2022-08-30T10:37:03;4.40;;;4.10;;
12892;SDS011;6514;48.606;9.222;2022-08-30T10:39:35;7.20;;;4.30;;
12892;SDS011;6514;48.606;9.222;2022-08-30T10:42:06;6.20;;;4.00;;
12892;SDS011;6514;48.606;9.222;2022-08-30T10:44:38;6.70;;;4.00;;
12892;SDS011;6514;48.606;9.222;2022-08-30T10:47:12;4.47;;;4.07;;
12892;SDS011;6514;48.606;9.222;2022-08-30T10:49:49;6.30;;;4.30;;
12892;SDS011;6514;48.606;9.222;2022-08-30T10:52:27;5.30;;;3.60;;
12892;SDS011;6514;48.606;9.222;2022-08-30T10:55:00;5.07;;;4.30;;
12892;SDS011;6514;48.606;9.222;2022-08-30T10:57:32;4.20;;;3.90;;
12892;SDS011;6514;48.606;9.222;2022-08-30T11:00:00;7.33;;;3.97;;
12892;SDS011;6514;48.606;9.222;2022-08-30T11:02:52;6.00;;;3.60;;
12892;SDS011;6514;48.606;9.222;2022-08-30T11:05:47;3.90;;;3.60;;
12892;SDS011;6514;48.606;9.222;2022-08-30T11:08:29;4.63;;;4.23;;
12892;SDS011;6514;48.606;9.222;2022-08-30T11:11:11;4.50;;;4.00;;
12892;SDS011;6514;48.606;9.222;2022-08-30T11:13:46;3.70;;;3.40;;
12892;SDS011;6514;48.606;9.222;2022-08-30T11:16:15;4.20;;;3.80;;
12892;SDS011;6514;48.606;9.222;2022-08-30T11:18:44;3.70;;;3.40;;
12892;SDS011;6514;48.606;9.222;2022-08-30T11:21:16;5.25;;;3.85;;
12892;SDS011;6514;48.606;9.222;2022-08-30T11:23:57;5.25;;;3.58;;
12892;SDS011;6514;48.606;9.222;2022-08-30T11:29:32;3.45;;;3.10;;
12892;SDS011;6514;48.606;9.222;2022-08-30T11:35:05;3.75;;;3.45;;
12892;SDS011;6514;48.606;9.222;2022-08-30T11:37:35;4.15;;;3.55;;
12892;SDS011;6514;48.606;9.222;2022-08-30T11:40:08;4.13;;;3.60;;
12892;SDS011;6514;48.606;9.222;2022-08-30T11:42:58;6.03;;;3.77;;
12892;SDS011;6514;48.606;9.222;2022-08-30T11:46:13;3.50;;;3.20;;
12892;SDS011;6514;48.606;9.222;2022-08-30T11:48:44;3.90;;;3.50;;
12892;SDS011;6514;48.606;9.222;2022-08-30T11:54:24;3.80;;;3.50;;
12892;SDS011;6514;48.606;9.222;2022-08-30T11:57:00;4.17;;;3.10;;
12892;SDS011;6514;48.606;9.222;2022-08-30T11:59:41;3.20;;;3.00;;
12892;SDS011;6514;48.606;9.222;2022-08-30T12:08:42;3.73;;;3.43;;
12892;SDS011;6514;48.606;9.222;2022-08-30T12:17:23;6.00;;;3.37;;
12892;SDS011;6514;48.606;9.222;2022-08-30T12:20:17;3.87;;;3.07;;
12892;SDS011;6514;48.606;9.222;2022-08-30T12:22:52;6.00;;;3.27;;
12892;SDS011;6514;48.606;9.222;2022-08-30T12:25:23;4.73;;;3.30;;
12892;SDS011;6514;48.606;9.222;2022-08-30T12:28:07;3.50;;;3.20;;
12892;SDS011;6514;48.606;9.222;2022-08-30T12:30:41;3.80;;;3.30;;
12892;SDS011;6514;48.606;9.222;2022-08-30T12:33:09;3.97;;;3.20;;
12892;SDS011;6514;48.606;9.222;2022-08-30T12:35:38;4.97;;;3.30;;
12892;SDS011;6514;48.606;9.222;2022-08-30T12:38:11;4.13;;;3.67;;
12892;SDS011;6514;48.606;9.222;2022-08-30T12:40:50;4.00;;;3.70;;
12892;SDS011;6514;48.606;9.222;2022-08-30T12:43:23;5.17;;;3.20;;
12892;SDS011;6514;48.606;9.222;2022-08-30T12:45:53;3.10;;;2.90;;
12892;SDS011;6514;48.606;9.222;2022-08-30T12:48:24;4.33;;;3.40;;
12892;SDS011;6514;48.606;9.222;2022-08-30T12:50:54;4.07;;;3.33;;
12892;SDS011;6514;48.606;9.222;2022-08-30T12:53:24;3.47;;;3.17;;
12892;SDS011;6514;48.606;9.222;2022-08-30T12:55:54;3.60;;;3.30;;
12892;SDS011;6514;48.606;9.222;2022-08-30T12:58:34;5.40;;;3.33;;
12892;SDS011;6514;48.606;9.222;2022-08-30T13:01:13;3.70;;;3.27;;
12892;SDS011;6514;48.606;9.222;2022-08-30T13:03:55;3.37;;;3.07;;
12892;SDS011;6514;48.606;9.222;2022-08-30T13:06:35;3.70;;;3.40;;
12892;SDS011;6514;48.606;9.222;2022-08-30T13:09:04;3.10;;;2.90;;
12892;SDS011;6514;48.606;9.222;2022-08-30T13:11:31;3.10;;;2.90;;
12892;SDS011;6514;48.606;9.222;2022-08-30T13:17:05;5.30;;;3.47;;
12892;SDS011;6514;48.606;9.222;2022-08-30T13:19:34;3.70;;;3.20;;
12892;SDS011;6514;48.606;9.222;2022-08-30T13:22:02;3.80;;;3.00;;
12892;SDS011;6514;48.606;9.222;2022-08-30T13:24:31;3.45;;;3.15;;
12892;SDS011;6514;48.606;9.222;2022-08-30T13:27:01;4.00;;;3.60;;
12892;SDS011;6514;48.606;9.222;2022-08-30T13:29:33;4.67;;;3.03;;
12892;SDS011;6514;48.606;9.222;2022-08-30T13:32:01;5.47;;;3.30;;
12892;SDS011;6514;48.606;9.222;2022-08-30T13:34:30;3.40;;;3.10;;
12892;SDS011;6514;48.606;9.222;2022-08-30T13:36:59;5.83;;;3.60;;
12892;SDS011;6514;48.606;9.222;2022-08-30T13:39:27;3.27;;;2.80;;
12892;SDS011;6514;48.606;9.222;2022-08-30T13:41:55;4.97;;;3.70;;
12892;SDS011;6514;48.606;9.222;2022-08-30T13:44:21;4.23;;;3.30;;
12892;SDS011;6514;48.606;9.222;2022-08-30T13:46:50;5.63;;;3.70;;
12892;SDS011;6514;48.606;9.222;2022-08-30T13:49:21;3.97;;;3.60;;
12892;SDS011;6514;48.606;9.222;2022-08-30T13:51:52;4.50;;;3.57;;
12892;SDS011;6514;48.606;9.222;2022-08-30T13:54:19;4.70;;;3.23;;
12892;SDS011;6514;48.606;9.222;2022-08-30T13:56:47;3.30;;;2.97;;
12892;SDS011;6514;48.606;9.222;2022-08-30T13:59:14;9.00;;;3.90;;
12892;SDS011;6514;48.606;9.222;2022-08-30T14:01:42;4.20;;;3.90;;
12892;SDS011;6514;48.606;9.222;2022-08-30T14:04:09;4.73;;;3.17;;
12892;SDS011;6514;48.606;9.222;2022-08-30T14:06:36;6.40;;;3.30;;
12892;SDS011;6514;48.606;9.222;2022-08-30T14:09:05;3.60;;;3.30;;
12892;SDS011;6514;48.606;9.222;2022-08-30T14:11:32;3.70;;;3.03;;
12892;SDS011;6514;48.606;9.222;2022-08-30T14:13:59;4.53;;;3.27;;
12892;SDS011;6514;48.606;9.222;2022-08-30T14:16:26;5.43;;;3.30;;
12892;SDS011;6514;48.606;9.222;2022-08-30T14:18:55;3.60;;;3.20;;
12892;SDS011;6514;48.606;9.222;2022-08-30T14:21:24;3.43;;;3.13;;
12892;SDS011;6514;48.606;9.222;2022-08-30T14:23:51;4.07;;;3.27;;
12892;SDS011;6514;48.606;9.222;2022-08-30T14:26:20;3.87;;;3.47;;
12892;SDS011;6514;48.606;9.222;2022-08-30T14:28:48;5.40;;;3.57;;
12892;SDS011;6514;48.606;9.222;2022-08-30T14:31:15;4.47;;;3.13;;
12892;SDS011;6514;48.606;9.222;2022-08-30T14:33:42;6.57;;;4.13;;
12892;SDS011;6514;48.606;9.222;2022-08-30T14:36:09;3.50;;;3.20;;
12892;SDS011;6514;48.606;9.222;2022-08-30T14:38:37;4.83;;;3.83;;
12892;SDS011;6514;48.606;9.222;2022-08-30T14:41:04;3.70;;;3.40;;
12892;SDS011;6514;48.606;9.222;2022-08-30T14:43:33;4.23;;;3.67;;
12892;SDS011;6514;48.606;9.222;2022-08-30T14:46:01;3.50;;;3.20;;
12892;SDS011;6514;48.606;9.222;2022-08-30T14:48:28;3.57;;;3.20;;
12892;SDS011;6514;48.606;9.222;2022-08-30T14:50:55;3.77;;;3.47;;
12892;SDS011;6514;48.606;9.222;2022-08-30T14:53:22;3.80;;;3.10;;
12892;SDS011;6514;48.606;9.222;2022-08-30T14:55:49;4.07;;;3.27;;
12892;SDS011;6514;48.606;9.222;2022-08-30T14:58:16;3.97;;;3.23;;
12892;SDS011;6514;48.606;9.222;2022-08-30T15:00:49;3.70;;;3.40;;
12892;SDS011;6514;48.606;9.222;2022-08-30T15:03:16;3.63;;;3.33;;
12892;SDS011;6514;48.606;9.222;2022-08-30T15:05:47;5.20;;;3.47;;
12892;SDS011;6514;48.606;9.222;2022-08-30T15:08:14;3.97;;;3.20;;
12892;SDS011;6514;48.606;9.222;2022-08-30T15:10:42;4.07;;;3.73;;
12892;SDS011;6514;48.606;9.222;2022-08-30T15:13:09;3.70;;;3.23;;
12892;SDS011;6514;48.606;9.222;2022-08-30T15:15:37;4.00;;;3.50;;
12892;SDS011;6514;48.606;9.222;2022-08-30T15:18:07;4.27;;;3.83;;
12892;SDS011;6514;48.606;9.222;2022-08-30T15:20:34;4.70;;;3.40;;
12892;SDS011;6514;48.606;9.222;2022-08-30T15:23:02;4.23;;;3.30;;
12892;SDS011;6514;48.606;9.222;2022-08-30T15:25:29;8.07;;;3.43;;
12892;SDS011;6514;48.606;9.222;2022-08-30T15:27:56;3.80;;;3.07;;
12892;SDS011;6514;48.606;9.222;2022-08-30T15:30:23;3.77;;;3.47;;
12892;SDS011;6514;48.606;9.222;2022-08-30T15:32:50;5.33;;;3.97;;